createdAt,value
2022-09-30T00:01:25.873Z,98936.63
2022-09-30T00:03:54.498Z,98928.75
2022-09-30T00:06:22.666Z,98923.63
2022-09-30T00:08:50.195Z,98921.97
2022-09-30T00:11:20.835Z,98925.63
2022-09-30T00:13:50.555Z,98917.06
2022-09-30T00:16:19.968Z,98917.06
2022-09-30T00:18:47.492Z,98912.94
2022-09-30T00:21:16.076Z,98924.09
2022-09-30T00:23:44.852Z,98917.53
2022-09-30T00:26:14.748Z,98922.53
2022-09-30T00:28:42.869Z,98920.03
2022-09-30T00:31:15.437Z,98917.34
2022-09-30T00:33:43.358Z,98905.94
2022-09-30T00:36:11.077Z,98903.87
2022-09-30T00:38:38.423Z,98906.53
2022-09-30T00:41:05.868Z,98904.78
2022-09-30T00:43:46.646Z,98908.47
2022-09-30T00:46:40.976Z,98899.69
2022-09-30T00:49:29.767Z,98901.22
2022-09-30T00:51:57.765Z,98901.81
2022-09-30T00:54:29.793Z,98899.41
2022-09-30T00:57:00.581Z,98894.81
2022-09-30T00:59:34.904Z,98896.78
2022-09-30T01:02:02.467Z,98896.53
2022-09-30T01:04:31.985Z,98896.69
2022-09-30T01:07:03.908Z,98904.97
2022-09-30T01:09:33.014Z,98907.19
2022-09-30T01:12:01.012Z,98904.06
2022-09-30T01:14:28.692Z,98896.94
2022-09-30T01:17:02.148Z,98907.22
2022-09-30T01:19:29.358Z,98903.78
2022-09-30T01:22:22.635Z,98915.84
2022-09-30T01:25:23.727Z,98910.53
2022-09-30T01:28:21.194Z,98892.22
2022-09-30T01:31:08.267Z,98889.66
2022-09-30T01:34:12.909Z,98907.19
2022-09-30T01:37:17.576Z,98905.59
2022-09-30T01:39:48.243Z,98895.19
2022-09-30T01:42:50.743Z,98900.97
2022-09-30T01:45:33.303Z,98897.16
2022-09-30T01:48:06.422Z,98898.56
2022-09-30T01:50:49.968Z,98896.13
2022-09-30T01:53:26.993Z,98877.03
2022-09-30T01:56:02.871Z,98878.13
2022-09-30T01:58:38.542Z,98876.75
2022-09-30T02:01:09.303Z,98877.47
2022-09-30T02:03:50.082Z,98871.06
2022-09-30T02:06:20.837Z,98875.63
2022-09-30T02:08:56.683Z,98874.47
2022-09-30T02:11:27.379Z,98869.44
2022-09-30T02:14:20.687Z,98862.38
2022-09-30T02:17:09.426Z,98868.72
2022-09-30T02:19:48.703Z,98877.50
2022-09-30T02:22:22.567Z,98888.72
2022-09-30T02:24:54.588Z,98909.81
2022-09-30T02:27:30.157Z,98898.28
2022-09-30T02:29:59.492Z,98899.16
2022-09-30T02:32:38.811Z,98891.97
2022-09-30T02:35:10.312Z,98876.47
2022-09-30T02:38:05.947Z,98867.09
2022-09-30T02:40:45.309Z,98839.28
2022-09-30T02:43:12.680Z,98839.22
2022-09-30T02:45:49.380Z,98852.63
2022-09-30T02:48:43.154Z,98864.75
2022-09-30T02:51:29.904Z,98867.41
2022-09-30T02:54:19.215Z,98851.22
2022-09-30T02:57:00.033Z,98846.97
2022-09-30T02:59:27.729Z,98841.31
2022-09-30T03:01:55.425Z,98840.94
2022-09-30T03:04:25.585Z,98838.72
2022-09-30T03:06:53.091Z,98838.84
2022-09-30T03:09:26.162Z,98838.16
2022-09-30T03:12:15.501Z,98845.25
2022-09-30T03:15:18.593Z,98841.00
2022-09-30T03:17:45.780Z,98839.16
2022-09-30T03:20:16.276Z,98829.31
2022-09-30T03:23:11.403Z,98841.94
2022-09-30T03:26:00.790Z,98856.06
2022-09-30T03:28:33.178Z,98858.00
2022-09-30T03:31:06.687Z,98864.59
2022-09-30T03:33:44.795Z,98869.03
2022-09-30T03:36:33.906Z,98857.91
2022-09-30T03:39:05.222Z,98858.06
2022-09-30T03:41:37.796Z,98867.31
2022-09-30T03:44:28.093Z,98857.16
2022-09-30T03:47:05.659Z,98860.91
2022-09-30T03:49:39.776Z,98865.53
2022-09-30T03:52:08.963Z,98856.59
2022-09-30T03:54:46.177Z,98853.66
2022-09-30T03:57:14.223Z,98856.59
2022-09-30T03:59:41.541Z,98856.66
2022-09-30T04:02:10.547Z,98855.66
2022-09-30T04:04:38.186Z,98864.00
2022-09-30T04:07:05.758Z,98861.06
2022-09-30T04:09:33.128Z,98861.44
2022-09-30T04:12:00.900Z,98866.81
2022-09-30T04:14:28.245Z,98866.91
2022-09-30T04:16:55.624Z,98863.97
2022-09-30T04:19:23.283Z,98857.34
2022-09-30T04:21:54.225Z,98861.31
2022-09-30T04:24:22.673Z,98865.00
2022-09-30T04:26:50.855Z,98868.75
2022-09-30T04:29:18.222Z,98861.03
2022-09-30T04:31:45.807Z,98870.34
2022-09-30T04:34:13.404Z,98866.84
2022-09-30T04:36:40.763Z,98883.38
2022-09-30T04:39:08.093Z,98897.41
2022-09-30T04:41:36.659Z,98887.53
2022-09-30T04:44:07.830Z,98898.16
2022-09-30T04:46:36.847Z,98899.72
2022-09-30T04:49:08.771Z,98901.22
2022-09-30T04:51:37.236Z,98915.66
2022-09-30T04:54:04.930Z,98916.97
2022-09-30T04:56:32.272Z,98912.44
2022-09-30T04:58:59.604Z,98908.63
2022-09-30T05:01:27.249Z,98913.91
2022-09-30T05:03:55.041Z,98909.63
2022-09-30T05:06:22.364Z,98913.97
2022-09-30T05:08:49.976Z,98907.84
2022-09-30T05:11:19.406Z,98913.13
2022-09-30T05:13:47.780Z,98906.69
2022-09-30T05:16:16.940Z,98918.94
2022-09-30T05:18:46.184Z,98916.03
2022-09-30T05:21:15.470Z,98915.47
2022-09-30T05:23:43.130Z,98916.28
2022-09-30T05:26:12.476Z,98922.84
2022-09-30T05:28:41.796Z,98923.31
2022-09-30T05:31:09.999Z,98924.72
2022-09-30T05:33:37.402Z,98930.06
2022-09-30T05:36:07.576Z,98929.19
2022-09-30T05:38:35.556Z,98925.22
2022-09-30T05:41:07.716Z,98922.94
2022-09-30T05:43:38.208Z,98932.63
2022-09-30T05:46:05.710Z,98928.09
2022-09-30T05:48:33.101Z,98929.00
2022-09-30T05:51:01.720Z,98933.69
2022-09-30T05:53:31.241Z,98932.78
2022-09-30T05:55:59.391Z,98927.97
2022-09-30T05:58:27.587Z,98931.63
2022-09-30T06:00:55.112Z,98924.91
2022-09-30T06:03:23.110Z,98941.41
2022-09-30T06:05:56.390Z,98931.53
2022-09-30T06:08:24.456Z,98940.66
2022-09-30T06:10:51.871Z,98948.13
2022-09-30T06:13:20.704Z,98941.22
2022-09-30T06:15:58.903Z,98940.59
2022-09-30T06:18:27.529Z,98944.28
2022-09-30T06:21:03.189Z,98947.09
2022-09-30T06:23:32.361Z,98949.56
2022-09-30T06:26:00.193Z,98954.03
2022-09-30T06:28:28.135Z,98958.84
2022-09-30T06:30:55.471Z,98966.25
2022-09-30T06:33:23.091Z,98963.00
2022-09-30T06:35:50.934Z,98965.03
2022-09-30T06:38:18.383Z,98979.00
2022-09-30T06:40:50.147Z,98977.19
2022-09-30T06:43:20.978Z,98977.47
2022-09-30T06:45:51.830Z,98978.91
2022-09-30T06:48:32.749Z,98985.22
2022-09-30T06:51:03.882Z,98975.56
2022-09-30T06:53:31.183Z,98995.09
2022-09-30T06:55:58.899Z,98994.91
2022-09-30T06:58:26.866Z,98989.34
2022-09-30T07:01:02.293Z,98994.19
2022-09-30T07:03:32.842Z,98995.13
2022-09-30T07:06:01.967Z,99002.13
2022-09-30T07:08:31.754Z,99003.63
2022-09-30T07:10:59.853Z,99001.50
2022-09-30T07:13:27.204Z,99001.41
2022-09-30T07:15:56.605Z,99006.75
2022-09-30T07:18:24.550Z,99011.81
2022-09-30T07:20:53.054Z,99021.75
2022-09-30T07:23:25.831Z,99011.84
2022-09-30T07:25:56.902Z,99016.91
2022-09-30T07:28:31.559Z,99014.59
2022-09-30T07:31:30.810Z,99027.44
2022-09-30T07:33:51.343Z,99030.69
2022-09-30T07:36:21.518Z,99033.22
2022-09-30T07:38:51.959Z,99038.41
2022-09-30T07:41:24.523Z,99042.47
2022-09-30T07:43:51.860Z,99042.13
2022-09-30T07:46:25.508Z,99033.75
2022-09-30T07:48:56.670Z,99045.31
2022-09-30T07:51:30.367Z,99048.53
2022-09-30T07:54:00.765Z,99052.59
2022-09-30T07:56:37.060Z,99053.91
2022-09-30T07:59:17.171Z,99057.25
2022-09-30T08:01:45.125Z,99056.25
2022-09-30T08:04:13.389Z,99055.13
2022-09-30T08:06:46.889Z,99063.53
2022-09-30T08:09:16.195Z,99061.72
2022-09-30T08:11:43.641Z,99066.16
2022-09-30T08:14:15.979Z,99065.19
2022-09-30T08:16:44.426Z,99071.13
2022-09-30T08:19:19.950Z,99078.06
2022-09-30T08:21:48.419Z,99084.84
2022-09-30T08:24:16.073Z,99090.09
2022-09-30T08:26:43.485Z,99087.53
2022-09-30T08:29:19.969Z,99095.59
2022-09-30T08:31:52.935Z,99091.22
2022-09-30T08:34:21.315Z,99099.75
2022-09-30T08:36:48.769Z,99102.56
2022-09-30T08:39:16.154Z,99107.84
2022-09-30T08:41:52.749Z,99106.81
2022-09-30T08:44:23.947Z,99115.09
2022-09-30T08:47:12.555Z,99115.31
2022-09-30T08:49:51.789Z,99128.59
2022-09-30T08:52:30.501Z,99127.97
2022-09-30T08:55:18.716Z,99130.53
2022-09-30T08:57:47.627Z,99127.19
2022-09-30T09:00:17.947Z,99117.44
2022-09-30T09:02:50.262Z,99125.41
2022-09-30T09:05:28.183Z,99131.19
2022-09-30T09:08:36.471Z,99122.56
2022-09-30T09:11:16.658Z,99128.25
2022-09-30T09:14:03.183Z,99133.00
2022-09-30T09:16:55.681Z,99132.00
2022-09-30T09:19:37.046Z,99141.31
2022-09-30T09:22:04.402Z,99140.94
2022-09-30T09:24:45.227Z,99148.16
2022-09-30T09:27:18.129Z,99155.56
2022-09-30T09:30:08.756Z,99163.75
2022-09-30T09:32:36.571Z,99169.75
2022-09-30T09:35:33.399Z,99171.38
2022-09-30T09:38:19.068Z,99175.59
2022-09-30T09:41:09.719Z,99174.28
2022-09-30T09:44:08.014Z,99173.59
2022-09-30T09:46:45.696Z,99172.06
2022-09-30T09:49:24.159Z,99173.19
2022-09-30T09:52:05.811Z,99179.25
2022-09-30T09:54:36.111Z,99181.47
2022-09-30T09:57:09.428Z,99185.00
2022-09-30T09:59:39.388Z,99188.66
2022-09-30T10:02:24.178Z,99190.81
2022-09-30T10:05:00.107Z,99187.63
2022-09-30T10:07:29.594Z,99185.41
2022-09-30T10:10:07.800Z,99190.66
2022-09-30T10:12:35.625Z,99193.44
2022-09-30T10:15:15.434Z,99186.81
2022-09-30T10:17:42.786Z,99195.31
2022-09-30T10:20:16.453Z,99203.97
2022-09-30T10:22:43.830Z,99200.84
2022-09-30T10:25:14.143Z,99207.44
2022-09-30T10:27:51.065Z,99199.72
2022-09-30T10:30:38.713Z,99217.19
2022-09-30T10:33:14.851Z,99218.88
2022-09-30T10:35:54.700Z,99223.06
2022-09-30T10:38:24.318Z,99219.59
2022-09-30T10:40:52.153Z,99215.25
2022-09-30T10:43:43.326Z,99229.75
2022-09-30T10:46:25.724Z,99238.37
2022-09-30T10:48:55.804Z,99229.31
2022-09-30T10:51:29.997Z,99233.06
2022-09-30T10:53:58.426Z,99238.81
2022-09-30T10:56:33.954Z,99240.56
2022-09-30T10:59:04.246Z,99247.25
2022-09-30T11:01:46.619Z,99254.06
2022-09-30T11:04:49.474Z,99257.50
2022-09-30T11:07:23.299Z,99269.09
2022-09-30T11:09:57.885Z,99275.06
2022-09-30T11:13:04.192Z,99285.13
2022-09-30T11:15:40.682Z,99297.63
2022-09-30T11:18:11.283Z,99297.13
2022-09-30T11:20:45.303Z,99305.13
2022-09-30T11:23:32.886Z,99315.50
2022-09-30T11:26:08.187Z,99319.56
2022-09-30T11:28:57.538Z,99325.78
2022-09-30T11:31:57.884Z,99345.22
2022-09-30T11:34:37.917Z,99344.00
2022-09-30T11:37:32.714Z,99341.34
2022-09-30T11:40:19.364Z,99339.72
2022-09-30T11:43:08.269Z,99340.09
2022-09-30T11:45:54.963Z,99349.84
2022-09-30T11:48:46.391Z,99364.22
2022-09-30T11:51:27.483Z,99362.69
2022-09-30T11:53:57.615Z,99379.91
2022-09-30T11:56:37.685Z,99377.41
2022-09-30T11:59:14.660Z,99378.41
2022-09-30T12:01:47.488Z,99375.75
2022-09-30T12:04:42.211Z,99385.59
2022-09-30T12:07:17.943Z,99382.06
2022-09-30T12:09:52.656Z,99390.34
2022-09-30T12:12:20.473Z,99387.34
2022-09-30T12:15:03.441Z,99398.59
2022-09-30T12:17:37.894Z,99401.09
2022-09-30T12:20:07.838Z,99399.00
2022-09-30T12:22:59.067Z,99406.81
2022-09-30T12:25:32.494Z,99397.09
2022-09-30T12:28:36.580Z,99405.84
2022-09-30T12:32:19.266Z,99414.78
2022-09-30T12:35:09.653Z,99412.84
2022-09-30T12:37:47.699Z,99406.25
2022-09-30T12:40:20.970Z,99414.44
2022-09-30T12:42:58.201Z,99415.41
2022-09-30T12:45:56.596Z,99423.34
2022-09-30T12:48:28.081Z,99427.00
2022-09-30T12:50:57.976Z,99433.19
2022-09-30T12:53:37.991Z,99433.56
2022-09-30T12:56:14.422Z,99440.06
2022-09-30T12:58:44.348Z,99440.75
2022-09-30T13:01:15.838Z,99451.22
2022-09-30T13:04:06.404Z,99450.41
2022-09-30T13:06:46.451Z,99456.09
2022-09-30T13:09:16.770Z,99452.75
2022-09-30T13:11:49.115Z,99448.34
2022-09-30T13:14:36.278Z,99442.31
2022-09-30T13:17:06.814Z,99446.50
2022-09-30T13:19:41.125Z,99454.03
2022-09-30T13:22:20.974Z,99463.12
2022-09-30T13:24:57.818Z,99465.19
2022-09-30T13:27:55.482Z,99478.62
2022-09-30T13:30:24.266Z,99485.34
2022-09-30T13:32:57.676Z,99482.66
2022-09-30T13:35:37.655Z,99495.72
2022-09-30T13:38:17.722Z,99512.41
2022-09-30T13:41:02.255Z,99515.19
2022-09-30T13:43:33.491Z,99506.53
2022-09-30T13:46:07.250Z,99501.84
2022-09-30T13:48:36.756Z,99499.22
2022-09-30T13:51:08.923Z,99507.63
2022-09-30T13:53:48.291Z,99504.22
2022-09-30T13:56:25.888Z,99496.16
2022-09-30T13:59:18.788Z,99494.53
2022-09-30T14:01:56.501Z,99491.41
2022-09-30T14:04:47.432Z,99497.56
2022-09-30T14:07:40.083Z,99490.59
2022-09-30T14:10:13.031Z,99479.38
2022-09-30T14:13:06.126Z,99478.13
2022-09-30T14:15:44.258Z,99476.47
2022-09-30T14:18:50.666Z,99486.69
2022-09-30T14:21:57.189Z,99492.94
2022-09-30T14:24:24.425Z,99497.44
2022-09-30T14:26:58.086Z,99501.38
2022-09-30T14:29:31.724Z,99494.56
2022-09-30T14:31:59.975Z,99498.78
2022-09-30T14:34:27.835Z,99498.13
2022-09-30T14:36:55.407Z,99502.81
2022-09-30T14:39:28.273Z,99498.31
2022-09-30T14:41:58.681Z,99503.31
2022-09-30T14:44:28.508Z,99502.56
2022-09-30T14:47:01.442Z,99488.84
2022-09-30T14:49:36.166Z,99489.16
2022-09-30T14:52:04.321Z,99490.28
2022-09-30T14:54:33.106Z,99498.03
2022-09-30T14:57:02.341Z,99497.16
2022-09-30T14:59:32.242Z,99498.56
2022-09-30T15:02:20.324Z,99505.16
2022-09-30T15:04:50.927Z,99512.41
2022-09-30T15:07:18.669Z,99518.72
2022-09-30T15:09:47.771Z,99510.00
2022-09-30T15:12:19.977Z,99516.75
2022-09-30T15:14:58.707Z,99513.50
2022-09-30T15:17:27.196Z,99519.97
2022-09-30T15:19:56.348Z,99522.41
2022-09-30T15:22:26.369Z,99521.19
2022-09-30T15:24:54.185Z,99525.47
2022-09-30T15:27:25.174Z,99532.78
2022-09-30T15:29:59.840Z,99531.47
2022-09-30T15:32:30.019Z,99548.56
2022-09-30T15:34:58.730Z,99550.69
2022-09-30T15:37:33.716Z,99550.06
2022-09-30T15:40:20.883Z,99543.97
2022-09-30T15:42:56.132Z,99563.12
2022-09-30T15:45:38.607Z,99562.94
2022-09-30T15:48:25.679Z,99562.00
2022-09-30T15:50:54.302Z,99565.75
2022-09-30T15:53:32.449Z,99560.59
2022-09-30T15:56:00.490Z,99567.50
2022-09-30T15:58:37.594Z,99576.13
2022-09-30T16:01:22.171Z,99573.19
2022-09-30T16:03:56.593Z,99577.25
2022-09-30T16:06:32.853Z,99585.09
2022-09-30T16:09:08.491Z,99590.94
2022-09-30T16:11:41.924Z,99580.19
2022-09-30T16:14:19.439Z,99585.38
2022-09-30T16:16:55.547Z,99589.53
2022-09-30T16:19:24.600Z,99585.38
2022-09-30T16:21:54.683Z,99586.28
2022-09-30T16:24:24.972Z,99597.34
2022-09-30T16:26:57.086Z,99601.12
2022-09-30T16:29:29.072Z,99599.44
2022-09-30T16:31:56.953Z,99602.81
2022-09-30T16:34:26.486Z,99601.53
2022-09-30T16:36:55.878Z,99594.41
2022-09-30T16:39:23.583Z,99595.31
2022-09-30T16:41:52.385Z,99598.31
2022-09-30T16:44:19.886Z,99611.53
2022-09-30T16:46:47.563Z,99603.31
2022-09-30T16:49:17.127Z,99612.41
2022-09-30T16:51:44.703Z,99615.16
2022-09-30T16:54:12.978Z,99621.59
2022-09-30T16:56:40.299Z,99618.63
2022-09-30T16:59:13.424Z,99616.44
2022-09-30T17:01:41.487Z,99632.44
2022-09-30T17:04:11.046Z,99632.19
2022-09-30T17:06:41.548Z,99637.25
2022-09-30T17:09:08.863Z,99632.72
2022-09-30T17:11:37.957Z,99630.34
2022-09-30T17:14:05.943Z,99624.62
2022-09-30T17:16:34.338Z,99627.63
2022-09-30T17:19:01.966Z,99624.66
2022-09-30T17:21:34.962Z,99638.66
2022-09-30T17:24:02.602Z,99642.44
2022-09-30T17:26:30.419Z,99642.56
2022-09-30T17:29:14.626Z,99639.56
2022-09-30T17:31:46.580Z,99638.81
2022-09-30T17:34:13.927Z,99636.81
2022-09-30T17:36:41.786Z,99646.59
2022-09-30T17:39:11.383Z,99647.16
2022-09-30T17:41:57.447Z,99647.38
2022-09-30T17:44:26.345Z,99661.34
2022-09-30T17:47:00.189Z,99659.91
2022-09-30T17:49:32.618Z,99649.94
2022-09-30T17:52:00.657Z,99660.91
2022-09-30T17:54:28.917Z,99670.59
2022-09-30T17:56:57.297Z,99678.00
2022-09-30T17:59:26.032Z,99679.19
2022-09-30T18:01:56.568Z,99674.25
2022-09-30T18:04:27.370Z,99674.84
2022-09-30T18:06:55.505Z,99671.09
2022-09-30T18:09:23.308Z,99661.44
2022-09-30T18:11:50.928Z,99676.09
2022-09-30T18:14:18.251Z,99677.22
2022-09-30T18:16:45.831Z,99674.16
2022-09-30T18:21:45.802Z,99671.81
2022-09-30T18:24:13.182Z,99665.50
2022-09-30T18:26:40.799Z,99666.97
2022-09-30T18:29:08.176Z,99675.50
2022-09-30T18:31:37.433Z,99689.00
2022-09-30T18:34:06.474Z,99691.72
2022-09-30T18:36:34.009Z,99687.66
2022-09-30T18:39:02.270Z,99683.78
2022-09-30T18:41:33.782Z,99686.09
2022-09-30T18:44:03.035Z,99688.44
2022-09-30T18:46:31.642Z,99697.00
2022-09-30T18:48:59.388Z,99708.16
2022-09-30T18:51:26.827Z,99703.25
2022-09-30T18:54:00.028Z,99701.94
2022-09-30T18:56:32.605Z,99708.53
2022-09-30T18:59:01.425Z,99713.88
2022-09-30T19:01:28.957Z,99710.16
2022-09-30T19:03:56.402Z,99722.44
2022-09-30T19:06:32.144Z,99717.34
2022-09-30T19:08:59.549Z,99722.34
2022-09-30T19:11:30.389Z,99713.59
2022-09-30T19:13:58.780Z,99713.50
2022-09-30T19:16:26.993Z,99732.88
2022-09-30T19:18:55.438Z,99738.12
2022-09-30T19:21:23.104Z,99734.69
2022-09-30T19:23:50.469Z,99742.56
2022-09-30T19:26:18.069Z,99760.94
2022-09-30T19:28:45.643Z,99780.13
2022-09-30T19:31:17.046Z,99763.59
2022-09-30T19:33:55.890Z,99758.97
2022-09-30T19:36:25.457Z,99749.63
2022-09-30T19:39:05.237Z,99749.81
2022-09-30T19:41:36.039Z,99749.81
2022-09-30T19:44:03.807Z,99751.78
2022-09-30T19:46:31.151Z,99759.34
2022-09-30T19:48:58.535Z,99755.53
2022-09-30T19:51:31.176Z,99756.19
2022-09-30T19:54:06.253Z,99762.13
2022-09-30T19:56:37.122Z,99758.91
2022-09-30T19:59:05.047Z,99754.16
2022-09-30T20:01:35.112Z,99754.44
2022-09-30T20:04:05.313Z,99754.66
2022-09-30T20:06:34.135Z,99747.00
2022-09-30T20:09:04.634Z,99752.50
2022-09-30T20:11:37.076Z,99749.06
2022-09-30T20:14:26.190Z,99744.06
2022-09-30T20:16:54.356Z,99753.47
2022-09-30T20:19:22.990Z,99750.25
2022-09-30T20:21:51.778Z,99739.09
2022-09-30T20:24:19.634Z,99731.03
2022-09-30T20:26:47.600Z,99744.84
2022-09-30T20:29:15.332Z,99746.44
2022-09-30T20:31:43.292Z,99746.06
2022-09-30T20:34:12.831Z,99746.38
2022-09-30T20:36:40.591Z,99744.84
2022-09-30T20:39:09.677Z,99740.44
2022-09-30T20:41:38.130Z,99733.31
2022-09-30T20:44:07.542Z,99736.75
2022-09-30T20:46:35.294Z,99716.38
2022-09-30T20:49:02.984Z,99710.03
2022-09-30T20:51:31.130Z,99718.66
2022-09-30T20:54:00.145Z,99714.59
2022-09-30T20:56:44.095Z,99713.75
2022-09-30T20:59:17.197Z,99723.75
2022-09-30T21:01:44.652Z,99721.88
2022-09-30T21:04:12.097Z,99721.63
2022-09-30T21:06:39.702Z,99721.63
2022-09-30T21:09:07.028Z,99723.97
2022-09-30T21:11:34.723Z,99724.50
2022-09-30T21:14:02.500Z,99717.84
2022-09-30T21:16:29.934Z,99728.63
2022-09-30T21:18:57.267Z,99730.34
2022-09-30T21:21:26.798Z,99728.56
2022-09-30T21:23:58.775Z,99724.13
2022-09-30T21:26:26.889Z,99716.12
2022-09-30T21:28:54.537Z,99720.94
2022-09-30T21:31:24.824Z,99724.41
2022-09-30T21:33:58.403Z,99735.97
2022-09-30T21:36:27.226Z,99732.28
2022-09-30T21:38:55.052Z,99736.63
2022-09-30T21:41:22.878Z,99755.81
2022-09-30T21:43:50.195Z,99740.84
2022-09-30T21:46:18.701Z,99728.03
2022-09-30T21:48:46.201Z,99714.75
2022-09-30T21:51:13.906Z,99737.00
2022-09-30T21:53:41.708Z,99728.97
2022-09-30T21:56:11.606Z,99726.06
2022-09-30T21:58:39.229Z,99722.94
2022-09-30T22:01:07.394Z,99724.88
2022-09-30T22:03:38.452Z,99740.25
2022-09-30T22:06:07.538Z,99754.34
2022-09-30T22:08:40.209Z,99758.47
2022-09-30T22:11:11.245Z,99749.25
2022-09-30T22:13:40.809Z,99750.97
2022-09-30T22:16:08.741Z,99739.75
2022-09-30T22:18:36.291Z,99731.31
2022-09-30T22:21:06.260Z,99718.25
2022-09-30T22:23:33.551Z,99718.25
2022-09-30T22:26:08.859Z,99718.03
2022-09-30T22:28:37.549Z,99714.62
2022-09-30T22:31:19.446Z,99724.44
2022-09-30T22:34:06.904Z,99718.75
2022-09-30T22:36:53.547Z,99723.22
2022-09-30T22:39:21.363Z,99717.06
2022-09-30T22:41:50.230Z,99715.56
2022-09-30T22:44:17.741Z,99719.59
2022-09-30T22:46:45.383Z,99705.19
2022-09-30T22:49:12.804Z,99700.66
2022-09-30T22:51:40.105Z,99690.84
2022-09-30T22:54:07.933Z,99693.03
2022-09-30T22:56:35.273Z,99693.00
2022-09-30T22:59:02.563Z,99692.62
2022-09-30T23:01:31.870Z,99704.75
2022-09-30T23:03:59.644Z,99697.78
2022-09-30T23:06:27.000Z,99703.00
2022-09-30T23:08:55.626Z,99709.53
2022-09-30T23:11:23.343Z,99707.28
2022-09-30T23:13:52.563Z,99713.75
2022-09-30T23:16:22.188Z,99713.56
2022-09-30T23:18:49.599Z,99702.59
2022-09-30T23:21:18.514Z,99698.47
2022-09-30T23:23:48.327Z,99701.13
2022-09-30T23:26:21.246Z,99707.19
2022-09-30T23:28:49.292Z,99705.75
2022-09-30T23:31:17.227Z,99707.47
2022-09-30T23:33:49.617Z,99705.72
2022-09-30T23:36:19.707Z,99698.63
2022-09-30T23:38:47.151Z,99693.72
2022-09-30T23:41:14.502Z,99696.72
2022-09-30T23:43:48.376Z,99694.41
2022-09-30T23:46:17.308Z,99691.75
2022-09-30T23:48:45.933Z,99677.91
2022-09-30T23:51:15.417Z,99680.50
2022-09-30T23:53:42.809Z,99671.84
2022-09-30T23:56:15.609Z,99660.41
2022-09-30T23:58:45.996Z,99655.50
